createdAt,value
2019-01-02T00:00:34.635Z,100447.02
2019-01-02T00:05:38.104Z,100452.56
2019-01-02T00:10:41.562Z,100446.04
2019-01-02T00:15:45.031Z,100454.98
2019-01-02T00:20:48.491Z,100443.89
2019-01-02T00:25:52.252Z,100453.59
2019-01-02T00:30:55.720Z,100449.44
2019-01-02T00:35:59.183Z,100456.97
2019-01-02T00:41:02.648Z,100443.11
2019-01-02T00:46:06.110Z,100460.15
2019-01-02T00:51:09.576Z,100463.11
2019-01-02T00:56:13.045Z,100476.19
2019-01-02T01:01:16.579Z,100482.52
2019-01-02T01:06:20.087Z,100486.68
2019-01-02T01:11:23.572Z,100488.66
2019-01-02T01:16:27.400Z,100492.03
2019-01-02T01:21:31.062Z,100495.00
2019-01-02T01:26:34.910Z,100505.90
2019-01-02T01:31:38.394Z,100501.74
2019-01-02T01:36:41.874Z,100500.92
2019-01-02T01:41:45.630Z,100516.77
2019-01-02T01:46:49.114Z,100513.02
2019-01-02T01:51:52.591Z,100522.31
2019-01-02T01:56:56.070Z,100537.38
2019-01-02T02:01:59.931Z,100536.41
2019-01-02T02:07:03.443Z,100531.42
2019-01-02T02:12:06.918Z,100530.44
2019-01-02T02:17:10.876Z,100523.51
2019-01-02T02:22:14.354Z,100531.04
2019-01-02T02:27:17.858Z,100535.80
2019-01-02T02:32:21.343Z,100540.14
2019-01-02T02:37:24.820Z,100545.50
2019-01-02T02:42:28.299Z,100545.69
2019-01-02T02:47:32.062Z,100559.36
2019-01-02T02:52:35.822Z,100564.12
2019-01-02T02:57:39.299Z,100567.68
2019-01-02T03:02:42.779Z,100568.87
2019-01-02T03:07:46.254Z,100574.42
2019-01-02T03:12:50.210Z,100559.17
2019-01-02T03:17:54.039Z,100570.27
2019-01-02T03:22:57.519Z,100572.25
2019-01-02T03:28:01.358Z,100583.97
2019-01-02T03:33:05.099Z,100582.38
2019-01-02T03:38:08.607Z,100588.12
2019-01-02T03:43:12.072Z,100593.67
2019-01-02T03:48:15.537Z,100583.17
2019-01-02T03:53:18.999Z,100611.69
2019-01-02T03:58:22.468Z,100605.36
2019-01-02T04:03:25.936Z,100614.27
2019-01-02T04:08:29.400Z,100614.27
2019-01-02T04:13:32.871Z,100617.45
2019-01-02T04:18:36.330Z,100608.34
2019-01-02T04:23:39.793Z,100620.22
2019-01-02T04:28:43.258Z,100624.97
2019-01-02T04:33:46.721Z,100620.02
2019-01-02T04:38:50.183Z,100630.52
2019-01-02T04:43:53.646Z,100629.92
2019-01-02T04:48:57.111Z,100633.89
2019-01-02T04:54:00.573Z,100625.56
2019-01-02T04:59:04.040Z,100628.34
2019-01-02T05:04:07.503Z,100637.64
2019-01-02T05:09:10.966Z,100641.80
2019-01-02T05:14:14.427Z,100648.73
2019-01-02T05:19:17.890Z,100659.82
2019-01-02T05:24:21.357Z,100663.98
2019-01-02T05:29:24.823Z,100666.16
2019-01-02T05:34:28.287Z,100674.28
2019-01-02T05:39:31.782Z,100681.80
2019-01-02T05:44:35.243Z,100681.80
2019-01-02T05:49:38.715Z,100690.72
2019-01-02T05:54:42.186Z,100690.53
2019-01-02T05:59:45.653Z,100706.56
2019-01-02T06:04:49.125Z,100711.13
2019-01-02T06:09:52.589Z,100715.48
2019-01-02T06:14:56.054Z,100721.81
2019-01-02T06:19:59.520Z,100723.20
2019-01-02T06:25:03.071Z,100730.92
2019-01-02T06:30:11.181Z,100735.68
2019-01-02T06:35:14.818Z,100738.25
2019-01-02T06:40:18.283Z,100743.80
2019-01-02T06:45:21.747Z,100751.52
2019-01-02T06:50:25.254Z,100766.58
2019-01-02T06:55:28.718Z,100772.72
2019-01-02T07:00:32.202Z,100782.42
2019-01-02T07:05:35.682Z,100793.51
2019-01-02T07:10:39.164Z,100804.59
2019-01-02T07:15:42.638Z,100801.83
2019-01-02T07:20:46.104Z,100818.46
2019-01-02T07:25:49.604Z,100823.41
2019-01-02T07:30:53.042Z,100830.94
2019-01-02T07:36:11.471Z,100830.14
2019-01-02T07:41:43.675Z,100834.90
2019-01-02T07:46:59.059Z,100839.68
2019-01-02T07:52:16.971Z,100896.77
2019-01-02T07:57:41.492Z,100872.08
2019-01-02T08:03:21.012Z,100888.36
2019-01-02T08:08:36.464Z,100889.73
2019-01-02T08:13:52.266Z,100886.97
2019-01-02T08:19:20.095Z,100902.97
2019-01-02T08:24:29.643Z,100917.63
2019-01-02T08:29:48.235Z,100935.04
2019-01-02T08:35:03.406Z,100923.95
2019-01-02T08:40:28.107Z,100933.85
2019-01-02T08:45:40.515Z,100939.39
2019-01-02T08:51:06.487Z,100952.06
2019-01-02T08:56:18.740Z,100960.58
2019-01-02T09:01:43.660Z,100969.09
2019-01-02T09:07:06.603Z,100949.86
2019-01-02T09:12:36.551Z,100957.78
2019-01-02T09:17:54.939Z,100960.16
2019-01-02T09:23:37.584Z,100964.31
2019-01-02T09:28:55.819Z,100978.58
2019-01-02T09:34:26.360Z,100977.78
2019-01-02T09:39:53.965Z,100981.34
2019-01-02T09:45:15.426Z,100985.72
2019-01-02T09:50:41.589Z,100984.16
2019-01-02T09:56:07.155Z,100994.59
2019-01-02T10:01:22.208Z,100993.20
2019-01-02T10:06:43.957Z,101024.22
2019-01-02T10:12:02.074Z,101032.48
2019-01-02T10:17:36.173Z,101023.93
2019-01-02T10:23:06.639Z,101029.23
2019-01-02T10:28:24.906Z,101036.29
2019-01-02T10:33:39.680Z,101040.02
2019-01-02T10:39:01.222Z,101053.97
2019-01-02T10:44:13.755Z,101051.33
2019-01-02T10:49:20.271Z,101053.82
2019-01-02T10:54:45.083Z,101064.91
2019-01-02T10:59:54.255Z,101072.72
2019-01-02T11:05:12.734Z,101076.00
2019-01-02T11:10:31.151Z,101075.08
2019-01-02T11:16:03.574Z,101080.09
2019-01-02T11:21:16.039Z,101085.52
2019-01-02T11:26:38.754Z,101079.02
2019-01-02T11:32:04.867Z,101092.70
2019-01-02T11:37:17.446Z,101097.69
2019-01-02T11:42:33.033Z,101100.48
2019-01-02T11:47:36.499Z,101106.84
2019-01-02T11:52:39.963Z,101108.45
2019-01-02T11:57:43.430Z,101117.95
2019-01-02T12:02:46.897Z,101127.84
2019-01-02T12:07:50.362Z,101120.54
2019-01-02T12:12:53.821Z,101131.05
2019-01-02T12:17:57.284Z,101135.98
2019-01-02T12:23:00.747Z,101134.63
2019-01-02T12:28:04.214Z,101133.66
2019-01-02T12:33:07.676Z,101136.83
2019-01-02T12:38:11.141Z,101149.52
2019-01-02T12:43:14.609Z,101159.45
2019-01-02T12:48:18.080Z,101153.09
2019-01-02T12:53:21.539Z,101165.59
2019-01-02T12:58:25.008Z,101173.69
2019-01-02T13:03:43.447Z,101188.95
2019-01-02T13:09:06.516Z,101199.23
2019-01-02T13:14:30.763Z,101206.77
2019-01-02T13:19:43.035Z,101213.52
2019-01-02T13:24:55.355Z,101219.64
2019-01-02T13:30:10.834Z,101236.08
2019-01-02T13:35:35.535Z,101241.03
2019-01-02T13:40:56.950Z,101255.09
2019-01-02T13:46:03.458Z,101250.75
2019-01-02T13:51:09.865Z,101250.34
2019-01-02T13:56:13.338Z,101273.33
2019-01-02T14:01:16.798Z,101279.88
2019-01-02T14:06:20.267Z,101279.28
2019-01-02T14:11:23.728Z,101288.59
2019-01-02T14:16:27.193Z,101285.41
2019-01-02T14:21:30.654Z,101287.20
2019-01-02T14:26:34.118Z,101289.97
2019-01-02T14:31:38.793Z,101299.88
2019-01-02T14:36:42.351Z,101307.22
2019-01-02T14:41:45.817Z,101309.99
2019-01-02T14:46:50.470Z,101317.12
2019-01-02T14:51:54.215Z,101315.33
2019-01-02T14:56:57.676Z,101312.97
2019-01-02T15:02:01.141Z,101315.92
2019-01-02T15:07:04.607Z,101329.98
2019-01-02T15:12:08.080Z,101327.21
2019-01-02T15:17:11.540Z,101354.34
2019-01-02T15:22:15.006Z,101366.82
2019-01-02T15:27:18.474Z,101370.98
2019-01-02T15:32:21.936Z,101375.75
2019-01-02T15:37:25.397Z,101371.19
2019-01-02T15:42:28.868Z,101377.53
2019-01-02T15:47:32.337Z,101387.02
2019-01-02T15:52:35.803Z,101388.41
2019-01-02T15:57:39.268Z,101396.73
2019-01-02T16:02:42.737Z,101404.84
2019-01-02T16:07:46.202Z,101415.92
2019-01-02T16:12:49.668Z,101426.22
2019-01-02T16:17:53.130Z,101429.58
2019-01-02T16:22:56.595Z,101441.47
2019-01-02T16:28:00.068Z,101451.77
2019-01-02T16:33:03.526Z,101457.30
2019-01-02T16:38:06.997Z,101462.67
2019-01-02T16:43:10.465Z,101470.38
2019-01-02T16:48:13.939Z,101476.53
2019-01-02T16:53:17.404Z,101482.08
2019-01-02T16:58:20.873Z,101491.96
2019-01-02T17:03:24.354Z,101499.90
2019-01-02T17:08:27.800Z,101501.87
2019-01-02T17:13:31.270Z,101507.63
2019-01-02T17:18:34.737Z,101518.92
2019-01-02T17:23:38.201Z,101529.63
2019-01-02T17:28:41.668Z,101533.20
2019-01-02T17:33:45.158Z,101532.99
2019-01-02T17:38:48.644Z,101536.35
2019-01-02T17:43:54.172Z,101541.31
2019-01-02T17:48:57.635Z,101542.70
2019-01-02T17:54:01.099Z,101548.24
2019-01-02T17:59:04.603Z,101551.81
2019-01-02T18:04:08.068Z,101563.70
2019-01-02T18:09:11.558Z,101571.02
2019-01-02T18:14:15.019Z,101576.77
2019-01-02T18:19:18.573Z,101580.92
2019-01-02T18:24:22.061Z,101587.48
2019-01-02T18:29:25.540Z,101592.81
2019-01-02T18:34:29.023Z,101608.27
2019-01-02T18:39:32.504Z,101606.67
2019-01-02T18:44:35.983Z,101611.42
2019-01-02T18:49:39.463Z,101628.06
2019-01-02T18:54:42.942Z,101636.38
2019-01-02T18:59:46.427Z,101640.53
2019-01-02T19:04:49.911Z,101646.45
2019-01-02T19:09:53.458Z,101657.77
2019-01-02T19:14:56.955Z,101659.14
2019-01-02T19:20:00.428Z,101657.55
2019-01-02T19:25:04.286Z,101672.21
2019-01-02T19:30:09.202Z,101681.33
2019-01-02T19:35:12.692Z,101684.69
2019-01-02T19:40:16.181Z,101687.25
2019-01-02T19:45:19.665Z,101690.61
2019-01-02T19:50:23.144Z,101693.59
2019-01-02T19:55:26.628Z,101701.91
2019-01-02T20:00:30.110Z,101707.25
2019-01-02T20:05:33.588Z,101708.63
2019-01-02T20:10:37.070Z,101711.41
2019-01-02T20:15:40.551Z,101711.20
2019-01-02T20:20:44.030Z,101709.22
2019-01-02T20:25:47.522Z,101717.54
2019-01-02T20:30:51.016Z,101711.20
2019-01-02T20:35:54.492Z,101716.16
2019-01-02T20:40:58.037Z,101708.42
2019-01-02T20:46:01.542Z,101704.05
2019-01-02T20:51:06.031Z,101702.66
2019-01-02T20:56:09.507Z,101709.59
2019-01-02T21:01:12.991Z,101706.23
2019-01-02T21:06:16.469Z,101716.73
2019-01-02T21:11:19.947Z,101715.36
2019-01-02T21:16:23.428Z,101715.36
2019-01-02T21:21:27.726Z,101717.33
2019-01-02T21:26:31.214Z,101713.75
2019-01-02T21:31:34.695Z,101720.09
2019-01-02T21:36:38.180Z,101711.78
2019-01-02T21:41:41.662Z,101707.41
2019-01-02T21:46:45.144Z,101700.48
2019-01-02T21:51:48.622Z,101709.42
2019-01-02T21:56:52.110Z,101713.58
2019-01-02T22:01:55.580Z,101710.80
2019-01-02T22:06:59.068Z,101701.09
2019-01-02T22:12:02.546Z,101705.26
2019-01-02T22:17:06.100Z,101701.28
2019-01-02T22:22:09.578Z,101697.70
2019-01-02T22:27:13.060Z,101694.75
2019-01-02T22:32:16.548Z,101699.50
2019-01-02T22:37:20.022Z,101708.03
2019-01-02T22:42:23.507Z,101703.66
2019-01-02T22:47:27.003Z,101712.77
2019-01-02T22:52:30.477Z,101717.73
2019-01-02T22:57:33.946Z,101723.86
2019-01-02T23:02:39.067Z,101730.21
2019-01-02T23:08:00.873Z,101731.59
2019-01-02T23:13:05.977Z,101738.53
2019-01-02T23:18:26.957Z,101736.92
2019-01-02T23:23:44.029Z,101739.70
2019-01-02T23:28:51.771Z,101739.91
2019-01-02T23:34:15.115Z,101743.86
2019-01-02T23:39:28.883Z,101746.63
2019-01-02T23:44:50.155Z,101765.23
2019-01-02T23:50:07.465Z,101761.08
2019-01-02T23:55:24.301Z,101763.85
